Vremea acum in Roznov - Czech Republic

Vrei sa afli care e starea vremii acum in Moravskoslezsky kraj - Czech Republic? Dorim sa iti furnizam starea vremii pentru Moravskoslezsky kraj - Czech Republic. Starea vremii Moravskoslezsky kraj - Czech Republic pentru astazi.

Vremea acum in Roznov

Temperatura: 19 °C

Se simte ca: 19 °C
Innorat: 0 %
Precipitatii: 0 %
Presiune atmosferica: 1021 hPa
Umiditate: 40%
Vizibilitate: 10 km
Vantul bate din SSW cu 9 km/h

Evolutia vremii in Roznov pe ore

Ora: 18:00
Parțial noros
Temperatura: 14.8°C
Sansa de precipitatii: 0%
Ora Descriere Temp Se simte Precipitatii Umiditate Vant
00:00Senin13.3°12.8°0%61%SSE 9 KM/H
01:00Senin13.3°12.7°0%60%SSE 9.4 KM/H
02:00Parțial noros12.8°12°0%59%SSE 9.4 KM/H
03:00Senin12.2°11.4°0%57%SSE 9.7 KM/H
04:00Parțial noros11.7°10.7°0%55%SSE 9.7 KM/H
05:00Parțial noros11.6°10.6°0%55%SSE 9.7 KM/H
06:00Parțial noros11.6°10.5°0%55%SSE 10.1 KM/H
07:00Parțial noros11.5°10.4°0%55%S 10.1 KM/H
08:00Parțial noros13.7°13°0%50%S 12.6 KM/H
09:00Parțial noros16°15.6°0%45%S 15.1 KM/H
10:00Parțial noros18.2°18.2°0%40%S 17.6 KM/H
11:00Parțial noros18.6°18.6°0%39%S 18 KM/H
12:00Parțial noros19.1°19.1°0%39%S 18.4 KM/H
13:00Parțial noros19.5°19.5°0%38%S 18.7 KM/H
14:00Parțial noros18.7°18.7°0%41%S 16.2 KM/H
15:00Parțial noros17.9°17.9°0%45%S 13.3 KM/H
16:00Parțial noros17.1°17.1°0%48%S 10.8 KM/H
17:00Parțial noros15.9°15.8°0%50%S 9.7 KM/H
18:00Parțial noros14.8°14.5°0%52%S 9 KM/H
19:00Parțial noros13.6°13.2°0%55%SSE 7.9 KM/H
20:00Parțial noros13.5°13.2°0%54%SSE 7.6 KM/H
21:00Parțial noros13.4°13.1°0%53%SSE 7.2 KM/H
22:00Parțial noros13.3°13.1°0%52%SSE 6.8 KM/H
23:00Parțial noros13.5°13.4°0%52%SSE 6.5 KM/H